Airfield :
LOGIN :

Register | Disclaimer

   EN    FR    IT 

 










Legend :    VFR   Marginal VFR   IFR   Intensive IFR   Very Intensive IFR
Visi :
Ceiling :
>= 8 km
>= 3000ft
5 to 8 km
1000 to 3000 ft
1500m to 5 km
500 to 1000 ft
800 to 1500m
200 to 500 ft
< 800m
< 200 ft
Symbols :   Thunderstorms  Fog  Heavy snow  Heavy precipitations  Wind > 20 kt
SIGMETs :     Misc.  Thunderstorms  Icing  Turbulence  Mountain Waves  Volcanic Ashes







- Airport Elevation : 425 ft
- IATA code : DTM


EDLW - Dortmund

CURRENT METAR :
  • 210350Z 22006KT CAVOK 17/13 Q1010

EXPIRED METARs :
  • 210320Z 23007KT CAVOK 17/13 Q1010
  • 210250Z AUTO 23005KT 9999 // SCT078/// SCT160/// 17/13 Q1010
  • 210220Z AUTO VRB02KT 9999 // SCT081/// BKN100/// 19/14 Q1010
  • 210150Z AUTO VRB02KT 9999 // BKN086/// BKN099/// 19/13 Q1010
  • 210120Z AUTO 23005KT 9999 // BKN088/// BKN100/// 19/13 Q1011

TAF TAF EDLW
Valid from the 21 at 04:00 until the 22 at 00:00 UTC


210350Z 2104/2124 24004KT CAVOK
BECMG 2107/2110 32005KT
PROB30
TEMPO 2113/2116 32010KT TSRA SCT050CB
BECMG 2117/2120 23004KT
No reported NOTAMs for that airfield.



MET'MAP, your aeronautical weather chart ! - Copyright ORBIFLY December 2007 - Disclaimer

ORBIFLY MET'MAP TEAM :

Programming & Development : Alexandra Zaïnal
Concept & Development : Baudouin d'Aumeries
Co-Development & Prog : Marc-Olivier Méhu
Technical & hardware support : Manuel Goepfert

Contact : metmap@orbifly.com




SOURCES & CREDITS :

   NOAA